sensor_id;sensor_type;location;lat;lon;timestamp;temperature;humidity
11764;DHT22;5939;56.522;14.950;2023-12-29T00:00:05;4.80;99.90
11764;DHT22;5939;56.522;14.950;2023-12-29T00:02:31;4.90;99.90
11764;DHT22;5939;56.522;14.950;2023-12-29T00:04:56;4.80;99.90
11764;DHT22;5939;56.522;14.950;2023-12-29T00:07:22;4.90;99.90
11764;DHT22;5939;56.522;14.950;2023-12-29T00:09:48;4.90;99.90
11764;DHT22;5939;56.522;14.950;2023-12-29T00:12:14;4.90;99.90
11764;DHT22;5939;56.522;14.950;2023-12-29T00:14:40;4.90;99.90
11764;DHT22;5939;56.522;14.950;2023-12-29T00:17:05;4.90;99.90
11764;DHT22;5939;56.522;14.950;2023-12-29T00:19:31;4.90;99.90
11764;DHT22;5939;56.522;14.950;2023-12-29T00:21:57;4.90;99.90
11764;DHT22;5939;56.522;14.950;2023-12-29T00:24:22;5.00;99.90
11764;DHT22;5939;56.522;14.950;2023-12-29T00:26:48;4.90;99.90
11764;DHT22;5939;56.522;14.950;2023-12-29T00:29:17;5.00;99.90
11764;DHT22;5939;56.522;14.950;2023-12-29T00:31:43;5.00;99.90
11764;DHT22;5939;56.522;14.950;2023-12-29T00:34:08;5.00;99.90
11764;DHT22;5939;56.522;14.950;2023-12-29T00:36:34;5.00;99.90
11764;DHT22;5939;56.522;14.950;2023-12-29T00:38:59;5.00;99.90
11764;DHT22;5939;56.522;14.950;2023-12-29T00:41:25;5.00;99.90
11764;DHT22;5939;56.522;14.950;2023-12-29T00:43:51;5.00;99.90
11764;DHT22;5939;56.522;14.950;2023-12-29T00:46:16;5.00;99.90
11764;DHT22;5939;56.522;14.950;2023-12-29T00:48:42;5.00;99.90
11764;DHT22;5939;56.522;14.950;2023-12-29T00:51:08;5.10;99.90
11764;DHT22;5939;56.522;14.950;2023-12-29T00:53:36;5.10;99.90
11764;DHT22;5939;56.522;14.950;2023-12-29T00:56:02;5.10;99.90
11764;DHT22;5939;56.522;14.950;2023-12-29T00:58:28;5.10;99.90
11764;DHT22;5939;56.522;14.950;2023-12-29T01:00:54;5.10;99.90
11764;DHT22;5939;56.522;14.950;2023-12-29T01:03:19;5.10;99.90
11764;DHT22;5939;56.522;14.950;2023-12-29T01:05:46;5.10;99.90
11764;DHT22;5939;56.522;14.950;2023-12-29T01:08:11;5.10;99.90
11764;DHT22;5939;56.522;14.950;2023-12-29T01:10:37;5.10;99.90
11764;DHT22;5939;56.522;14.950;2023-12-29T01:13:03;5.10;99.90
11764;DHT22;5939;56.522;14.950;2023-12-29T01:15:29;5.10;99.90
11764;DHT22;5939;56.522;14.950;2023-12-29T01:17:55;5.10;99.90
11764;DHT22;5939;56.522;14.950;2023-12-29T01:20:20;5.10;99.90
11764;DHT22;5939;56.522;14.950;2023-12-29T01:22:46;5.20;99.90
11764;DHT22;5939;56.522;14.950;2023-12-29T01:25:11;5.20;99.90
11764;DHT22;5939;56.522;14.950;2023-12-29T01:27:37;5.20;99.90
11764;DHT22;5939;56.522;14.950;2023-12-29T01:30:03;5.20;99.90
11764;DHT22;5939;56.522;14.950;2023-12-29T01:32:29;5.20;99.90
11764;DHT22;5939;56.522;14.950;2023-12-29T01:34:54;5.20;99.90
11764;DHT22;5939;56.522;14.950;2023-12-29T01:37:20;5.20;99.90
11764;DHT22;5939;56.522;14.950;2023-12-29T01:39:46;5.20;99.90
11764;DHT22;5939;56.522;14.950;2023-12-29T01:42:11;5.20;99.90
11764;DHT22;5939;56.522;14.950;2023-12-29T01:44:37;5.20;99.90
11764;DHT22;5939;56.522;14.950;2023-12-29T01:47:04;5.30;99.90
11764;DHT22;5939;56.522;14.950;2023-12-29T01:49:33;5.30;99.90
11764;DHT22;5939;56.522;14.950;2023-12-29T01:52:00;5.30;99.90
11764;DHT22;5939;56.522;14.950;2023-12-29T01:54:33;5.30;99.90
11764;DHT22;5939;56.522;14.950;2023-12-29T01:57:00;5.30;99.90
11764;DHT22;5939;56.522;14.950;2023-12-29T01:59:28;5.30;99.90
11764;DHT22;5939;56.522;14.950;2023-12-29T02:01:54;5.30;99.90
11764;DHT22;5939;56.522;14.950;2023-12-29T02:04:27;5.30;99.90
11764;DHT22;5939;56.522;14.950;2023-12-29T02:06:53;5.30;99.90
11764;DHT22;5939;56.522;14.950;2023-12-29T02:09:18;5.30;99.90
11764;DHT22;5939;56.522;14.950;2023-12-29T02:11:45;5.30;99.90
11764;DHT22;5939;56.522;14.950;2023-12-29T02:14:11;5.30;99.90
11764;DHT22;5939;56.522;14.950;2023-12-29T02:19:41;5.40;99.90
11764;DHT22;5939;56.522;14.950;2023-12-29T02:22:08;5.30;99.90
11764;DHT22;5939;56.522;14.950;2023-12-29T02:24:35;5.40;99.90
11764;DHT22;5939;56.522;14.950;2023-12-29T02:32:27;5.40;99.90
11764;DHT22;5939;56.522;14.950;2023-12-29T02:34:55;5.40;99.90
11764;DHT22;5939;56.522;14.950;2023-12-29T02:37:22;5.40;99.90
11764;DHT22;5939;56.522;14.950;2023-12-29T02:39:48;5.40;99.90
11764;DHT22;5939;56.522;14.950;2023-12-29T02:42:14;5.40;99.90
11764;DHT22;5939;56.522;14.950;2023-12-29T02:44:40;5.40;99.90
11764;DHT22;5939;56.522;14.950;2023-12-29T02:47:05;5.40;99.90
11764;DHT22;5939;56.522;14.950;2023-12-29T02:49:31;5.40;99.90
11764;DHT22;5939;56.522;14.950;2023-12-29T02:51:57;5.40;99.90
11764;DHT22;5939;56.522;14.950;2023-12-29T02:54:22;5.40;99.90
11764;DHT22;5939;56.522;14.950;2023-12-29T02:56:48;5.40;99.90
11764;DHT22;5939;56.522;14.950;2023-12-29T02:59:13;5.40;99.90
11764;DHT22;5939;56.522;14.950;2023-12-29T03:01:39;5.40;99.90
11764;DHT22;5939;56.522;14.950;2023-12-29T03:04:05;5.40;99.90
11764;DHT22;5939;56.522;14.950;2023-12-29T03:06:30;5.40;99.90
11764;DHT22;5939;56.522;14.950;2023-12-29T03:08:56;5.40;99.90
11764;DHT22;5939;56.522;14.950;2023-12-29T03:11:22;5.40;99.90
11764;DHT22;5939;56.522;14.950;2023-12-29T03:13:47;5.40;99.90
11764;DHT22;5939;56.522;14.950;2023-12-29T03:16:13;5.40;99.90
11764;DHT22;5939;56.522;14.950;2023-12-29T03:18:39;5.40;99.90
11764;DHT22;5939;56.522;14.950;2023-12-29T03:21:06;5.40;99.90
11764;DHT22;5939;56.522;14.950;2023-12-29T03:23:33;5.40;99.90
11764;DHT22;5939;56.522;14.950;2023-12-29T03:25:59;5.40;99.90
11764;DHT22;5939;56.522;14.950;2023-12-29T03:28:25;5.40;99.90
11764;DHT22;5939;56.522;14.950;2023-12-29T03:30:50;5.30;99.90
11764;DHT22;5939;56.522;14.950;2023-12-29T03:33:16;5.40;99.90
11764;DHT22;5939;56.522;14.950;2023-12-29T03:35:42;5.40;99.90
11764;DHT22;5939;56.522;14.950;2023-12-29T03:38:07;5.40;99.90
11764;DHT22;5939;56.522;14.950;2023-12-29T03:40:33;5.30;99.90
11764;DHT22;5939;56.522;14.950;2023-12-29T03:42:59;5.30;99.90
11764;DHT22;5939;56.522;14.950;2023-12-29T03:45:24;5.30;99.90
11764;DHT22;5939;56.522;14.950;2023-12-29T03:47:50;5.40;99.90
11764;DHT22;5939;56.522;14.950;2023-12-29T03:50:15;5.30;99.90
11764;DHT22;5939;56.522;14.950;2023-12-29T03:52:41;5.30;99.90
11764;DHT22;5939;56.522;14.950;2023-12-29T03:55:07;5.30;99.90
11764;DHT22;5939;56.522;14.950;2023-12-29T03:57:33;5.30;99.90
11764;DHT22;5939;56.522;14.950;2023-12-29T03:59:58;5.30;99.90
11764;DHT22;5939;56.522;14.950;2023-12-29T04:02:24;5.30;99.90
11764;DHT22;5939;56.522;14.950;2023-12-29T04:04:49;5.30;99.90
11764;DHT22;5939;56.522;14.950;2023-12-29T04:07:15;5.30;99.90
11764;DHT22;5939;56.522;14.950;2023-12-29T04:09:41;5.30;99.90
11764;DHT22;5939;56.522;14.950;2023-12-29T04:12:06;5.30;99.90
11764;DHT22;5939;56.522;14.950;2023-12-29T04:14:32;5.30;99.90
11764;DHT22;5939;56.522;14.950;2023-12-29T04:16:58;5.30;99.90
11764;DHT22;5939;56.522;14.950;2023-12-29T04:19:25;5.30;99.90
11764;DHT22;5939;56.522;14.950;2023-12-29T04:21:51;5.30;99.90
11764;DHT22;5939;56.522;14.950;2023-12-29T04:24:17;5.30;99.90
11764;DHT22;5939;56.522;14.950;2023-12-29T04:26:43;5.30;99.90
11764;DHT22;5939;56.522;14.950;2023-12-29T04:29:08;5.30;99.90
11764;DHT22;5939;56.522;14.950;2023-12-29T04:31:34;5.30;99.90
11764;DHT22;5939;56.522;14.950;2023-12-29T04:34:00;5.30;99.90
11764;DHT22;5939;56.522;14.950;2023-12-29T04:36:25;5.30;99.90
11764;DHT22;5939;56.522;14.950;2023-12-29T04:38:51;5.30;99.90
11764;DHT22;5939;56.522;14.950;2023-12-29T04:41:17;5.20;99.90
11764;DHT22;5939;56.522;14.950;2023-12-29T04:43:42;5.20;99.90
11764;DHT22;5939;56.522;14.950;2023-12-29T04:46:08;5.20;99.90
11764;DHT22;5939;56.522;14.950;2023-12-29T04:48:34;5.20;99.90
11764;DHT22;5939;56.522;14.950;2023-12-29T04:50:59;5.20;99.90
11764;DHT22;5939;56.522;14.950;2023-12-29T04:53:25;5.20;99.90
11764;DHT22;5939;56.522;14.950;2023-12-29T04:55:51;5.20;99.90
11764;DHT22;5939;56.522;14.950;2023-12-29T04:58:16;5.20;99.90
11764;DHT22;5939;56.522;14.950;2023-12-29T05:00:42;5.20;99.90
11764;DHT22;5939;56.522;14.950;2023-12-29T05:03:07;5.20;99.90
11764;DHT22;5939;56.522;14.950;2023-12-29T05:05:33;5.20;99.90
11764;DHT22;5939;56.522;14.950;2023-12-29T05:07:59;5.20;99.90
11764;DHT22;5939;56.522;14.950;2023-12-29T05:10:24;5.30;99.90
11764;DHT22;5939;56.522;14.950;2023-12-29T05:12:50;5.20;99.90
11764;DHT22;5939;56.522;14.950;2023-12-29T05:15:16;5.30;99.90
11764;DHT22;5939;56.522;14.950;2023-12-29T05:17:41;5.20;99.90
11764;DHT22;5939;56.522;14.950;2023-12-29T05:20:08;5.30;99.90
11764;DHT22;5939;56.522;14.950;2023-12-29T05:22:33;5.20;99.90
11764;DHT22;5939;56.522;14.950;2023-12-29T05:24:59;5.30;99.90
11764;DHT22;5939;56.522;14.950;2023-12-29T05:27:26;5.20;99.90
11764;DHT22;5939;56.522;14.950;2023-12-29T05:29:52;5.30;99.90
11764;DHT22;5939;56.522;14.950;2023-12-29T05:32:17;5.20;99.90
11764;DHT22;5939;56.522;14.950;2023-12-29T05:34:43;5.20;99.90
11764;DHT22;5939;56.522;14.950;2023-12-29T05:37:09;5.30;99.90
11764;DHT22;5939;56.522;14.950;2023-12-29T05:39:34;5.30;99.90
11764;DHT22;5939;56.522;14.950;2023-12-29T05:42:00;5.30;99.90
11764;DHT22;5939;56.522;14.950;2023-12-29T05:44:26;5.20;99.90
11764;DHT22;5939;56.522;14.950;2023-12-29T05:46:51;5.30;99.90
11764;DHT22;5939;56.522;14.950;2023-12-29T05:49:17;5.30;99.90
11764;DHT22;5939;56.522;14.950;2023-12-29T05:51:44;5.20;99.90
11764;DHT22;5939;56.522;14.950;2023-12-29T05:54:09;5.20;99.90
11764;DHT22;5939;56.522;14.950;2023-12-29T05:56:35;5.30;99.90
11764;DHT22;5939;56.522;14.950;2023-12-29T05:59:01;5.30;99.90
11764;DHT22;5939;56.522;14.950;2023-12-29T06:01:26;5.30;99.90
11764;DHT22;5939;56.522;14.950;2023-12-29T06:03:52;5.30;99.90
11764;DHT22;5939;56.522;14.950;2023-12-29T06:06:18;5.30;99.90
11764;DHT22;5939;56.522;14.950;2023-12-29T06:08:43;5.20;99.90
11764;DHT22;5939;56.522;14.950;2023-12-29T06:11:14;5.30;99.90
11764;DHT22;5939;56.522;14.950;2023-12-29T06:13:41;5.30;99.90
11764;DHT22;5939;56.522;14.950;2023-12-29T06:16:06;5.30;99.90
11764;DHT22;5939;56.522;14.950;2023-12-29T06:18:32;5.30;99.90
11764;DHT22;5939;56.522;14.950;2023-12-29T06:20:58;5.30;99.90
11764;DHT22;5939;56.522;14.950;2023-12-29T06:23:24;5.30;99.90
11764;DHT22;5939;56.522;14.950;2023-12-29T06:25:51;5.30;99.90
11764;DHT22;5939;56.522;14.950;2023-12-29T06:28:17;5.30;99.90
11764;DHT22;5939;56.522;14.950;2023-12-29T06:30:42;5.30;99.90
11764;DHT22;5939;56.522;14.950;2023-12-29T06:33:08;5.30;99.90
11764;DHT22;5939;56.522;14.950;2023-12-29T06:35:34;5.30;99.90
11764;DHT22;5939;56.522;14.950;2023-12-29T06:37:59;5.30;99.90
11764;DHT22;5939;56.522;14.950;2023-12-29T06:40:25;5.30;99.90
11764;DHT22;5939;56.522;14.950;2023-12-29T06:42:51;5.40;99.90
11764;DHT22;5939;56.522;14.950;2023-12-29T06:45:16;5.30;99.90
11764;DHT22;5939;56.522;14.950;2023-12-29T06:47:42;5.30;99.90
11764;DHT22;5939;56.522;14.950;2023-12-29T06:50:08;5.30;99.90
11764;DHT22;5939;56.522;14.950;2023-12-29T06:52:38;5.30;99.90
11764;DHT22;5939;56.522;14.950;2023-12-29T06:55:04;5.30;99.90
11764;DHT22;5939;56.522;14.950;2023-12-29T06:57:30;5.30;99.90
11764;DHT22;5939;56.522;14.950;2023-12-29T06:59:55;5.30;99.90
11764;DHT22;5939;56.522;14.950;2023-12-29T07:02:21;5.30;99.90
11764;DHT22;5939;56.522;14.950;2023-12-29T07:04:47;5.30;99.90
11764;DHT22;5939;56.522;14.950;2023-12-29T07:07:12;5.30;99.90
11764;DHT22;5939;56.522;14.950;2023-12-29T07:09:39;5.30;99.90
11764;DHT22;5939;56.522;14.950;2023-12-29T07:12:07;5.30;99.90
11764;DHT22;5939;56.522;14.950;2023-12-29T07:14:33;5.30;99.90
11764;DHT22;5939;56.522;14.950;2023-12-29T07:17:01;5.40;99.90
11764;DHT22;5939;56.522;14.950;2023-12-29T07:19:27;5.30;99.90
11764;DHT22;5939;56.522;14.950;2023-12-29T07:21:59;5.30;99.90
11764;DHT22;5939;56.522;14.950;2023-12-29T07:24:25;5.30;99.90
11764;DHT22;5939;56.522;14.950;2023-12-29T07:26:50;5.30;99.90
11764;DHT22;5939;56.522;14.950;2023-12-29T07:29:16;5.30;99.90
11764;DHT22;5939;56.522;14.950;2023-12-29T07:31:42;5.30;99.90
11764;DHT22;5939;56.522;14.950;2023-12-29T07:34:07;5.30;99.90
11764;DHT22;5939;56.522;14.950;2023-12-29T07:36:33;5.30;99.90
11764;DHT22;5939;56.522;14.950;2023-12-29T07:39:03;5.30;99.90
11764;DHT22;5939;56.522;14.950;2023-12-29T07:41:29;5.30;99.90
11764;DHT22;5939;56.522;14.950;2023-12-29T07:43:55;5.30;99.90
11764;DHT22;5939;56.522;14.950;2023-12-29T07:46:24;5.40;99.90
11764;DHT22;5939;56.522;14.950;2023-12-29T07:48:51;5.40;99.90
11764;DHT22;5939;56.522;14.950;2023-12-29T07:51:16;5.40;99.90
11764;DHT22;5939;56.522;14.950;2023-12-29T07:53:42;5.30;99.90
11764;DHT22;5939;56.522;14.950;2023-12-29T07:56:07;5.40;99.90
11764;DHT22;5939;56.522;14.950;2023-12-29T07:58:33;5.40;99.90
11764;DHT22;5939;56.522;14.950;2023-12-29T08:00:59;5.40;99.90
11764;DHT22;5939;56.522;14.950;2023-12-29T08:03:24;5.40;99.90
11764;DHT22;5939;56.522;14.950;2023-12-29T08:05:50;5.40;99.90
11764;DHT22;5939;56.522;14.950;2023-12-29T08:08:15;5.40;99.90
11764;DHT22;5939;56.522;14.950;2023-12-29T08:10:41;5.30;99.90
11764;DHT22;5939;56.522;14.950;2023-12-29T08:13:07;5.40;99.90
11764;DHT22;5939;56.522;14.950;2023-12-29T08:15:34;5.40;99.90
11764;DHT22;5939;56.522;14.950;2023-12-29T08:18:00;5.30;99.90
11764;DHT22;5939;56.522;14.950;2023-12-29T08:20:25;5.40;99.90
11764;DHT22;5939;56.522;14.950;2023-12-29T08:22:51;5.40;99.90
11764;DHT22;5939;56.522;14.950;2023-12-29T08:25:17;5.40;99.90
11764;DHT22;5939;56.522;14.950;2023-12-29T08:27:43;5.40;99.90
11764;DHT22;5939;56.522;14.950;2023-12-29T08:30:09;5.40;99.90
11764;DHT22;5939;56.522;14.950;2023-12-29T08:32:34;5.40;99.90
11764;DHT22;5939;56.522;14.950;2023-12-29T08:35:00;5.40;99.90
11764;DHT22;5939;56.522;14.950;2023-12-29T08:37:25;5.40;99.90
11764;DHT22;5939;56.522;14.950;2023-12-29T08:39:51;5.40;99.90
11764;DHT22;5939;56.522;14.950;2023-12-29T08:42:17;5.40;99.90
11764;DHT22;5939;56.522;14.950;2023-12-29T08:44:42;5.40;99.90
11764;DHT22;5939;56.522;14.950;2023-12-29T08:47:08;5.40;99.90
11764;DHT22;5939;56.522;14.950;2023-12-29T08:49:36;5.40;99.90
11764;DHT22;5939;56.522;14.950;2023-12-29T08:52:01;5.40;99.90
11764;DHT22;5939;56.522;14.950;2023-12-29T08:54:27;5.40;99.90
11764;DHT22;5939;56.522;14.950;2023-12-29T08:56:53;5.40;99.90
11764;DHT22;5939;56.522;14.950;2023-12-29T08:59:18;5.40;99.90
11764;DHT22;5939;56.522;14.950;2023-12-29T09:01:44;5.40;99.90
11764;DHT22;5939;56.522;14.950;2023-12-29T09:04:10;5.40;99.90
11764;DHT22;5939;56.522;14.950;2023-12-29T09:06:35;5.40;99.90
11764;DHT22;5939;56.522;14.950;2023-12-29T09:09:01;5.40;99.90
11764;DHT22;5939;56.522;14.950;2023-12-29T09:11:27;5.40;99.90
11764;DHT22;5939;56.522;14.950;2023-12-29T09:13:52;5.40;99.90
11764;DHT22;5939;56.522;14.950;2023-12-29T09:16:18;5.40;99.90
11764;DHT22;5939;56.522;14.950;2023-12-29T09:18:43;5.40;99.90
11764;DHT22;5939;56.522;14.950;2023-12-29T09:21:09;5.50;99.90
11764;DHT22;5939;56.522;14.950;2023-12-29T09:23:35;5.40;99.90
11764;DHT22;5939;56.522;14.950;2023-12-29T09:26:03;5.40;99.90
11764;DHT22;5939;56.522;14.950;2023-12-29T09:28:28;5.40;99.90
11764;DHT22;5939;56.522;14.950;2023-12-29T09:30:54;5.40;99.90
11764;DHT22;5939;56.522;14.950;2023-12-29T09:33:19;5.50;99.90
11764;DHT22;5939;56.522;14.950;2023-12-29T09:35:45;5.50;99.90
11764;DHT22;5939;56.522;14.950;2023-12-29T09:38:11;5.40;99.90
11764;DHT22;5939;56.522;14.950;2023-12-29T09:40:37;5.50;99.90
11764;DHT22;5939;56.522;14.950;2023-12-29T09:43:03;5.50;99.90
11764;DHT22;5939;56.522;14.950;2023-12-29T09:45:30;5.50;99.90
11764;DHT22;5939;56.522;14.950;2023-12-29T09:47:58;5.50;99.90
11764;DHT22;5939;56.522;14.950;2023-12-29T09:50:25;5.50;99.90
11764;DHT22;5939;56.522;14.950;2023-12-29T09:52:53;5.50;99.90
11764;DHT22;5939;56.522;14.950;2023-12-29T09:55:19;5.50;99.90
11764;DHT22;5939;56.522;14.950;2023-12-29T09:57:47;5.50;99.90
11764;DHT22;5939;56.522;14.950;2023-12-29T10:00:15;5.50;99.90
11764;DHT22;5939;56.522;14.950;2023-12-29T10:02:41;5.50;99.90
11764;DHT22;5939;56.522;14.950;2023-12-29T10:05:08;5.50;99.90
11764;DHT22;5939;56.522;14.950;2023-12-29T10:07:38;5.50;99.90
11764;DHT22;5939;56.522;14.950;2023-12-29T10:10:05;5.50;99.90
11764;DHT22;5939;56.522;14.950;2023-12-29T10:12:35;5.50;99.90
11764;DHT22;5939;56.522;14.950;2023-12-29T10:15:24;5.50;99.90
11764;DHT22;5939;56.522;14.950;2023-12-29T10:20:41;5.50;99.90
11764;DHT22;5939;56.522;14.950;2023-12-29T10:23:16;5.50;99.90
11764;DHT22;5939;56.522;14.950;2023-12-29T10:25:44;5.50;99.90
11764;DHT22;5939;56.522;14.950;2023-12-29T10:28:10;5.50;99.90
11764;DHT22;5939;56.522;14.950;2023-12-29T10:30:36;5.50;99.90
11764;DHT22;5939;56.522;14.950;2023-12-29T10:33:04;5.50;99.90
11764;DHT22;5939;56.522;14.950;2023-12-29T10:35:30;5.50;99.90
11764;DHT22;5939;56.522;14.950;2023-12-29T10:38:08;5.50;99.90
11764;DHT22;5939;56.522;14.950;2023-12-29T10:40:35;5.50;99.90
11764;DHT22;5939;56.522;14.950;2023-12-29T10:43:00;5.60;99.90
11764;DHT22;5939;56.522;14.950;2023-12-29T10:45:32;5.60;99.90
11764;DHT22;5939;56.522;14.950;2023-12-29T10:48:00;5.60;99.90
11764;DHT22;5939;56.522;14.950;2023-12-29T10:50:26;5.60;99.90
11764;DHT22;5939;56.522;14.950;2023-12-29T10:53:11;5.60;99.90
11764;DHT22;5939;56.522;14.950;2023-12-29T10:55:37;5.60;99.90
11764;DHT22;5939;56.522;14.950;2023-12-29T10:58:03;5.60;99.90
11764;DHT22;5939;56.522;14.950;2023-12-29T11:00:32;5.60;99.90
11764;DHT22;5939;56.522;14.950;2023-12-29T11:03:00;5.60;99.90
11764;DHT22;5939;56.522;14.950;2023-12-29T11:05:27;5.60;99.90
11764;DHT22;5939;56.522;14.950;2023-12-29T11:07:54;5.60;99.90
11764;DHT22;5939;56.522;14.950;2023-12-29T11:10:21;5.60;99.90
11764;DHT22;5939;56.522;14.950;2023-12-29T11:12:48;5.60;99.90
11764;DHT22;5939;56.522;14.950;2023-12-29T11:15:15;5.60;99.90
11764;DHT22;5939;56.522;14.950;2023-12-29T11:17:44;5.60;99.90
11764;DHT22;5939;56.522;14.950;2023-12-29T11:20:15;5.70;99.90
11764;DHT22;5939;56.522;14.950;2023-12-29T11:22:42;5.70;99.90
11764;DHT22;5939;56.522;14.950;2023-12-29T11:25:09;5.70;99.90
11764;DHT22;5939;56.522;14.950;2023-12-29T11:27:35;5.70;99.90
11764;DHT22;5939;56.522;14.950;2023-12-29T11:30:02;5.70;99.90
11764;DHT22;5939;56.522;14.950;2023-12-29T11:33:26;5.70;99.90
11764;DHT22;5939;56.522;14.950;2023-12-29T11:36:02;5.70;99.90
11764;DHT22;5939;56.522;14.950;2023-12-29T11:38:48;5.70;99.90
11764;DHT22;5939;56.522;14.950;2023-12-29T11:41:27;5.70;99.90
11764;DHT22;5939;56.522;14.950;2023-12-29T11:43:58;5.70;99.90
11764;DHT22;5939;56.522;14.950;2023-12-29T11:46:40;5.70;99.90
11764;DHT22;5939;56.522;14.950;2023-12-29T11:49:08;5.70;99.90
11764;DHT22;5939;56.522;14.950;2023-12-29T11:51:44;5.70;99.90
11764;DHT22;5939;56.522;14.950;2023-12-29T11:54:10;5.70;99.90
11764;DHT22;5939;56.522;14.950;2023-12-29T11:56:47;5.70;99.90
11764;DHT22;5939;56.522;14.950;2023-12-29T12:01:41;5.80;99.90
11764;DHT22;5939;56.522;14.950;2023-12-29T12:07:06;5.80;99.90
11764;DHT22;5939;56.522;14.950;2023-12-29T12:09:33;5.80;99.90
11764;DHT22;5939;56.522;14.950;2023-12-29T12:12:01;5.80;99.90
11764;DHT22;5939;56.522;14.950;2023-12-29T12:14:49;5.80;99.90
11764;DHT22;5939;56.522;14.950;2023-12-29T12:17:31;5.80;99.90
11764;DHT22;5939;56.522;14.950;2023-12-29T12:20:09;5.80;99.90
11764;DHT22;5939;56.522;14.950;2023-12-29T12:22:36;5.80;99.90
11764;DHT22;5939;56.522;14.950;2023-12-29T12:25:02;5.80;99.90
11764;DHT22;5939;56.522;14.950;2023-12-29T12:27:30;5.80;99.90
11764;DHT22;5939;56.522;14.950;2023-12-29T12:29:57;5.80;99.90
11764;DHT22;5939;56.522;14.950;2023-12-29T12:32:25;5.80;99.90
11764;DHT22;5939;56.522;14.950;2023-12-29T12:34:51;5.80;99.90
11764;DHT22;5939;56.522;14.950;2023-12-29T12:37:21;5.80;99.90
11764;DHT22;5939;56.522;14.950;2023-12-29T12:39:46;5.80;99.90
11764;DHT22;5939;56.522;14.950;2023-12-29T12:42:13;5.90;99.90
11764;DHT22;5939;56.522;14.950;2023-12-29T12:44:42;5.80;99.90
11764;DHT22;5939;56.522;14.950;2023-12-29T12:47:15;5.80;99.90
11764;DHT22;5939;56.522;14.950;2023-12-29T12:49:42;5.90;99.90
11764;DHT22;5939;56.522;14.950;2023-12-29T12:52:08;5.80;99.90
11764;DHT22;5939;56.522;14.950;2023-12-29T12:54:34;5.80;99.90
11764;DHT22;5939;56.522;14.950;2023-12-29T12:57:00;5.80;99.90
11764;DHT22;5939;56.522;14.950;2023-12-29T12:59:27;5.90;99.90
11764;DHT22;5939;56.522;14.950;2023-12-29T13:01:53;5.90;99.90
11764;DHT22;5939;56.522;14.950;2023-12-29T13:04:19;5.90;99.90
11764;DHT22;5939;56.522;14.950;2023-12-29T13:06:45;5.80;99.90
11764;DHT22;5939;56.522;14.950;2023-12-29T13:09:11;5.90;99.90
11764;DHT22;5939;56.522;14.950;2023-12-29T13:11:39;5.90;99.90
11764;DHT22;5939;56.522;14.950;2023-12-29T13:14:06;5.80;99.90
11764;DHT22;5939;56.522;14.950;2023-12-29T13:16:36;5.90;99.90
11764;DHT22;5939;56.522;14.950;2023-12-29T13:19:23;5.90;99.90
11764;DHT22;5939;56.522;14.950;2023-12-29T13:21:53;5.90;99.90
11764;DHT22;5939;56.522;14.950;2023-12-29T13:24:22;5.80;99.90
11764;DHT22;5939;56.522;14.950;2023-12-29T13:26:51;5.90;99.90
11764;DHT22;5939;56.522;14.950;2023-12-29T13:29:21;5.90;99.90
11764;DHT22;5939;56.522;14.950;2023-12-29T13:31:53;5.90;99.90
11764;DHT22;5939;56.522;14.950;2023-12-29T13:34:54;5.90;99.90
11764;DHT22;5939;56.522;14.950;2023-12-29T13:37:43;5.90;99.90
11764;DHT22;5939;56.522;14.950;2023-12-29T13:43:01;5.90;99.90
11764;DHT22;5939;56.522;14.950;2023-12-29T13:45:27;5.90;99.90
11764;DHT22;5939;56.522;14.950;2023-12-29T13:47:54;5.90;99.90
11764;DHT22;5939;56.522;14.950;2023-12-29T13:50:21;5.90;99.90
11764;DHT22;5939;56.522;14.950;2023-12-29T13:52:47;5.80;99.90
11764;DHT22;5939;56.522;14.950;2023-12-29T13:55:23;5.90;99.90
11764;DHT22;5939;56.522;14.950;2023-12-29T13:57:50;5.90;99.90
11764;DHT22;5939;56.522;14.950;2023-12-29T14:00:23;5.90;99.90
11764;DHT22;5939;56.522;14.950;2023-12-29T14:03:02;5.80;99.90
11764;DHT22;5939;56.522;14.950;2023-12-29T14:05:47;5.90;99.90
11764;DHT22;5939;56.522;14.950;2023-12-29T14:08:33;5.90;99.90
11764;DHT22;5939;56.522;14.950;2023-12-29T14:11:10;5.90;99.90
11764;DHT22;5939;56.522;14.950;2023-12-29T14:13:44;5.80;99.90
11764;DHT22;5939;56.522;14.950;2023-12-29T14:16:11;5.90;99.90
11764;DHT22;5939;56.522;14.950;2023-12-29T14:18:52;5.90;99.90
11764;DHT22;5939;56.522;14.950;2023-12-29T14:21:28;5.90;99.90
11764;DHT22;5939;56.522;14.950;2023-12-29T14:24:12;5.90;99.90
11764;DHT22;5939;56.522;14.950;2023-12-29T14:29:20;5.80;99.90
11764;DHT22;5939;56.522;14.950;2023-12-29T14:31:47;5.90;99.90
11764;DHT22;5939;56.522;14.950;2023-12-29T14:34:13;5.90;99.90
11764;DHT22;5939;56.522;14.950;2023-12-29T14:36:41;5.90;99.90
11764;DHT22;5939;56.522;14.950;2023-12-29T14:39:07;5.90;99.90
11764;DHT22;5939;56.522;14.950;2023-12-29T14:41:33;5.90;99.90
11764;DHT22;5939;56.522;14.950;2023-12-29T14:43:59;5.90;99.90
11764;DHT22;5939;56.522;14.950;2023-12-29T14:46:25;5.90;99.90
11764;DHT22;5939;56.522;14.950;2023-12-29T14:48:52;5.90;99.90
11764;DHT22;5939;56.522;14.950;2023-12-29T14:51:18;5.90;99.90
11764;DHT22;5939;56.522;14.950;2023-12-29T14:53:48;5.90;99.90
11764;DHT22;5939;56.522;14.950;2023-12-29T14:56:15;5.90;99.90
11764;DHT22;5939;56.522;14.950;2023-12-29T14:58:41;5.90;99.90
11764;DHT22;5939;56.522;14.950;2023-12-29T15:01:07;5.90;99.90
11764;DHT22;5939;56.522;14.950;2023-12-29T15:03:34;5.90;99.90
11764;DHT22;5939;56.522;14.950;2023-12-29T15:06:00;5.90;99.90
11764;DHT22;5939;56.522;14.950;2023-12-29T15:08:26;5.90;99.90
11764;DHT22;5939;56.522;14.950;2023-12-29T15:10:54;5.90;99.90
11764;DHT22;5939;56.522;14.950;2023-12-29T15:13:20;5.90;99.90
11764;DHT22;5939;56.522;14.950;2023-12-29T15:15:46;5.90;99.90
11764;DHT22;5939;56.522;14.950;2023-12-29T15:18:11;5.90;99.90
11764;DHT22;5939;56.522;14.950;2023-12-29T15:20:37;6.00;99.90
11764;DHT22;5939;56.522;14.950;2023-12-29T15:23:03;5.90;99.90
11764;DHT22;5939;56.522;14.950;2023-12-29T15:25:28;5.90;99.90
11764;DHT22;5939;56.522;14.950;2023-12-29T15:27:54;6.00;99.90
11764;DHT22;5939;56.522;14.950;2023-12-29T15:30:20;6.00;99.90
11764;DHT22;5939;56.522;14.950;2023-12-29T15:32:46;5.90;99.90
11764;DHT22;5939;56.522;14.950;2023-12-29T15:35:11;6.00;99.90
11764;DHT22;5939;56.522;14.950;2023-12-29T15:37:37;6.00;99.90
11764;DHT22;5939;56.522;14.950;2023-12-29T15:40:03;6.00;99.90
11764;DHT22;5939;56.522;14.950;2023-12-29T15:42:30;6.00;99.90
11764;DHT22;5939;56.522;14.950;2023-12-29T15:44:55;6.00;99.90
11764;DHT22;5939;56.522;14.950;2023-12-29T15:47:21;6.00;99.90
11764;DHT22;5939;56.522;14.950;2023-12-29T15:49:46;6.10;99.90
11764;DHT22;5939;56.522;14.950;2023-12-29T15:52:12;6.00;99.90
11764;DHT22;5939;56.522;14.950;2023-12-29T15:54:38;6.10;99.90
11764;DHT22;5939;56.522;14.950;2023-12-29T15:57:04;6.10;99.90
11764;DHT22;5939;56.522;14.950;2023-12-29T15:59:36;6.10;99.90
11764;DHT22;5939;56.522;14.950;2023-12-29T16:02:02;6.10;99.90
11764;DHT22;5939;56.522;14.950;2023-12-29T16:04:28;6.10;99.90
11764;DHT22;5939;56.522;14.950;2023-12-29T16:06:54;6.10;99.90